Latest Weather Observations for Fitzroy Crossing

IDW60801

Issued at 5:35 pm WST Saturday 29 November 2014 (issued every 30 minutes, with the page automatically refreshed every 10 minutes)

About weather observations | Map of weather stations | Latest weather observations for WA | Other Formats
Station Details ID: 003093 Name: FITZROY CROSSING AERO Lat: -18.18 Lon: 125.56 Height: 114.5 m
Data from the previous 72 hours. | See also: Recent months at Fitzroy Crossing
Date/Time
WST
Temp
°C
App
Temp
°C
Dew
Point
Rel
Hum
%
Delta-T
°C
Wind Press
QNH
hPa
Press
MSL
hPa
Rain
since 9 am
mm
Dir
 
Spd
km/h
Gust
km/h
Spd
kts
Gust
kts
29/05:30pm 38.3 37.7 16.6 28 14.1 N 15 20 8 11 1002.7 1001.8 0.0
29/05:00pm 39.0 37.0 15.4 25 15.1 NNW 20 30 11 16 1002.4 1001.5 0.0
29/04:30pm 40.0 40.5 14.9 22 15.9 SSE 6 9 3 5 1002.5 1001.6 0.0
29/04:00pm 40.2 40.5 15.1 23 16.0 E 7 13 4 7 1002.3 1001.4 0.0
29/03:30pm 40.6 40.8 14.7 21 16.4 S 7 17 4 9 1002.3 1001.4 0.0
29/03:00pm 40.4 41.0 15.9 23 15.8 E 7 13 4 7 1002.1 1001.2 0.0
29/02:30pm 41.5 41.2 15.5 22 16.7 ESE 11 17 6 9 1002.2 1001.3 0.0
29/02:00pm 42.5 42.5 16.3 22 17.1 SSW 11 20 6 11 1002.7 1001.8 0.0
29/01:30pm 41.4 41.0 16.1 23 16.4 W 13 20 7 11 1003.4 1002.5 0.0
29/01:00pm 40.4 39.3 17.2 26 15.2 SW 19 26 10 14 1004.0 1003.1 0.0
29/12:30pm 40.1 39.6 16.9 25 15.1 SSW 15 24 8 13 1004.5 1003.6 0.0
29/12:00pm 39.7 40.2 16.6 26 15.0 SSE 9 19 5 10 1005.2 1004.2 0.0
29/11:30am 39.2 39.2 17.3 27 14.3 SSW 13 19 7 10 1005.7 1004.7 0.0
29/11:00am 39.0 40.6 18.3 30 13.7 S 7 17 4 9 1006.3 1005.3 0.0
29/10:30am 38.1 38.3 18.5 31 13.0 SW 15 24 8 13 1006.8 1005.8 0.0
29/10:00am 37.3 38.2 19.3 35 12.0 WSW 13 20 7 11 1007.3 1006.3 0.0
29/09:30am 35.7 37.3 19.2 38 11.0 S 9 15 5 8 1007.7 1006.7 0.0
29/09:00am 34.8 35.9 19.6 40 10.1 WSW 13 19 7 10 1007.9 1006.9 0.0
29/08:30am 34.3 36.1 20.3 44 9.4 W 11 15 6 8 1008.1 1007.1 0.0
29/08:00am 33.4 35.6 20.5 46 8.7 W 9 19 5 10 1008.1 1007.1 0.0
29/07:30am 32.4 34.9 21.0 51 7.7 W 9 13 5 7 1008.4 1007.4 0.0
29/07:00am 31.5 33.6 21.7 56 6.7 WNW 13 19 7 10 1008.5 1007.5 0.0
29/06:30am 30.5 32.3 21.8 59 5.9 WNW 15 19 8 10 1008.4 1007.4 0.0
29/06:00am 29.5 31.8 22.0 64 5.1 NNW 13 17 7 9 1008.2 1007.2 0.0
29/05:30am 28.4 31.4 21.9 68 4.4 WNW 9 11 5 6 1007.8 1006.8 0.0
29/05:00am 27.7 30.6 21.7 70 4.0 NW 9 11 5 6 1007.5 1006.5 0.0
29/04:30am 27.8 30.2 21.6 69 4.2 N 11 13 6 7 1007.2 1006.2 0.0
29/04:00am 28.5 31.4 21.8 67 4.5 WNW 9 13 5 7 1006.9 1005.9 0.0
29/03:30am 28.8 31.2 21.6 65 4.8 NW 11 13 6 7 1006.7 1005.7 0.0
29/03:00am 29.2 31.3 21.7 64 5.1 NW 13 17 7 9 1006.7 1005.7 0.0
29/02:30am 29.5 31.7 21.2 61 5.6 WNW 11 17 6 9 1006.6 1005.6 0.0
29/02:00am 29.3 30.6 19.3 55 6.5 NNW 11 13 6 7 1006.5 1005.5 0.0
29/01:30am 29.2 28.7 18.6 52 6.8 NW 19 22 10 12 1006.4 1005.4 0.0
29/01:00am 29.5 33.7 20.9 60 5.8 CALM 0 0 0 0 1006.2 1005.2 0.0
29/12:30am 30.3 34.7 21.4 59 6.0 CALM 0 0 0 0 1006.3 1005.3 0.0
29/12:00am 30.6 35.2 21.7 59 6.0 CALM 0 0 0 0 1006.5 1005.5 0.0
 
Date/Time
WST
Temp
°C
App
Temp
°C
Dew
Point
Rel
Hum
%
Delta-T
°C
Wind Press
QNH
hPa
Press
MSL
hPa
Rain
since 9 am
mm
Dir
 
Spd
km/h
Gust
km/h
Spd
kts
Gust
kts
28/11:30pm 30.3 35.0 21.9 60 5.7 CALM 0 0 0 0 1006.8 1005.8 0.0
28/11:00pm 30.3 34.3 20.5 55 6.5 CALM 0 0 0 0 1007.0 1006.0 0.0
28/10:30pm 31.1 35.2 20.7 54 7.0 CALM 0 0 0 0 1007.3 1006.3 0.0
28/10:00pm 31.4 35.3 20.4 52 7.3 CALM 0 0 0 0 1007.6 1006.6 0.0
28/09:30pm 31.9 35.5 19.8 48 8.0 CALM 0 0 0 0 1007.8 1006.8 0.0
28/09:00pm 32.2 35.8 19.8 48 8.2 CALM 0 0 0 0 1007.8 1006.8 0.0
28/08:30pm 33.3 37.1 20.1 45 8.8 CALM 0 0 0 0 1007.7 1006.7 0.0
28/08:00pm 33.7 36.1 19.7 43 9.3 E 6 7 3 4 1007.5 1006.5 0.0
28/07:30pm 34.1 36.4 19.4 42 9.7 SE 6 9 3 5 1007.5 1006.5 0.0
28/07:00pm 34.9 36.4 18.9 39 10.6 SE 9 13 5 7 1007.2 1006.2 0.0
28/06:30pm 35.8 37.1 18.4 35 11.4 S 9 11 5 6 1006.5 1005.5 0.0
28/06:00pm 36.7 37.7 17.8 32 12.4 SSW 9 13 5 7 1006.1 1005.1 0.0
28/05:30pm 37.5 38.2 18.0 31 12.8 S 11 15 6 8 1005.8 1004.8 0.0
28/05:00pm 37.8 38.0 17.7 30 13.2 SW 13 20 7 11 1005.5 1004.5 0.0
28/04:30pm 38.3 39.0 17.1 28 13.8 SE 9 17 5 9 1005.3 1004.3 0.0
28/04:00pm 38.5 39.3 17.3 28 13.9 SW 9 15 5 8 1005.3 1004.3 0.0
28/03:30pm 38.4 39.7 17.2 28 13.8 S 6 20 3 11 1005.4 1004.4 0.0
28/03:00pm 38.0 38.1 17.4 29 13.5 S 13 20 7 11 1005.5 1004.5 0.0
28/02:30pm 37.6 38.0 18.1 32 12.8 SSE 13 24 7 13 1005.8 1004.8 0.0
28/02:00pm 37.5 37.8 18.0 31 12.8 SE 13 22 7 12 1006.4 1005.4 0.0
28/01:30pm 37.3 37.6 18.8 33 12.3 SSE 15 26 8 14 1006.8 1005.8 0.0
28/01:00pm 37.2 39.9 18.7 33 12.3 SW 2 - 1 - 1007.4 1006.4 0.0
28/12:30pm 37.0 37.4 19.0 34 12.0 SSW 15 24 8 13 1007.8 1006.8 0.0
28/12:00pm 36.4 37.7 18.5 35 11.8 SE 9 17 5 9 1008.5 1007.5 0.0
28/11:30am 35.7 36.2 18.3 35 11.4 SSE 13 22 7 12 1009.1 1008.2 0.0
28/11:00am 35.3 36.9 20.0 40 10.3 S 11 19 6 10 1009.7 1008.8 0.0
28/10:30am 34.5 36.6 20.1 43 9.6 E 9 20 5 11 1010.1 1009.2 0.0
28/10:00am 33.0 35.1 20.2 47 8.6 NE 9 13 5 7 1010.6 1009.7 0.0
28/09:30am 32.4 35.1 20.6 49 7.9 SSE 7 15 4 8 1011.1 1010.2 0.0
28/09:00am 31.7 33.3 20.0 50 7.8 E 11 19 6 10 1011.4 1010.5 4.4
28/08:30am 31.3 33.0 20.9 54 7.0 E 13 17 7 9 1011.5 1010.6 4.4
28/08:00am 30.2 32.1 21.3 59 6.0 E 13 17 7 9 1011.5 1010.6 4.4
28/07:30am 29.6 32.4 21.5 61 5.5 E 9 17 5 9 1011.4 1010.5 4.4
28/07:00am 28.0 30.6 22.0 70 4.1 ESE 11 15 6 8 1011.2 1010.3 4.4
28/06:30am 27.1 30.0 21.8 73 3.6 SE 9 11 5 6 1011.0 1010.1 4.4
28/06:00am 25.9 29.0 22.2 80 2.5 SSE 9 13 5 7 1010.8 1009.9 4.4
28/05:30am 24.8 27.9 22.1 85 1.8 SSE 9 11 5 6 1010.4 1009.5 4.4
28/05:00am 24.2 27.2 21.9 87 1.5 ESE 9 11 5 6 1010.0 1009.1 4.4
28/04:30am 24.3 27.7 22.0 87 1.5 SE 7 7 4 4 1009.7 1008.8 4.4
28/04:00am 24.2 27.2 21.9 87 1.5 E 9 11 5 6 1009.4 1008.5 4.4
28/03:30am 24.2 26.8 21.9 87 1.5 ESE 11 13 6 7 1009.2 1008.3 4.4
28/03:00am 24.3 27.4 22.2 88 1.4 ESE 9 13 5 7 1009.0 1008.1 4.4
28/02:30am 24.4 27.3 22.5 89 1.3 ESE 11 13 6 7 1008.9 1008.0 4.4
28/02:00am 24.7 29.6 22.4 87 1.6 CALM 0 0 0 0 1009.0 1008.1 4.4
28/01:30am 24.8 29.4 22.5 87 1.6 S 2 7 1 4 1009.1 1008.2 4.4
28/01:00am 24.9 29.6 22.6 87 1.6 SSE 2 9 1 5 1009.3 1008.4 4.4
28/12:30am 24.9 28.5 22.0 84 1.9 NNW 6 9 3 5 1009.7 1008.8 4.4
28/12:00am 25.3 29.0 22.2 83 2.1 E 6 7 3 4 1010.1 1009.2 4.4
 
Date/Time
WST
Temp
°C
App
Temp
°C
Dew
Point
Rel
Hum
%
Delta-T
°C
Wind Press
QNH
hPa
Press
MSL
hPa
Rain
since 9 am
mm
Dir
 
Spd
km/h
Gust
km/h
Spd
kts
Gust
kts
27/11:30pm 25.4 28.5 22.1 82 2.2 NE 9 13 5 7 1010.4 1009.5 4.4
27/11:00pm 25.4 28.4 21.9 81 2.3 N 9 11 5 6 1010.5 1009.6 4.4
27/10:30pm 25.1 28.7 22.4 85 1.8 N 7 11 4 6 1010.7 1009.8 4.4
27/10:00pm 24.8 27.6 22.3 86 1.7 N 11 17 6 9 1010.6 1009.7 4.4
27/09:30pm 24.6 26.9 22.7 89 1.3 N 15 17 8 9 1010.7 1009.8 4.4
27/09:00pm 24.6 27.6 22.7 89 1.3 N 11 13 6 7 1010.8 1009.9 4.4
27/08:30pm 25.2 28.9 22.5 85 1.8 W 7 9 4 5 1011.3 1010.4 4.4
27/08:00pm 25.2 27.1 22.1 83 2.1 SSE 15 26 8 14 1010.9 1010.0 4.4
27/07:30pm 25.3 27.3 22.2 83 2.1 SE 15 20 8 11 1010.9 1010.0 4.4
27/07:00pm 25.2 27.1 22.1 83 2.1 S 15 19 8 10 1011.0 1010.1 4.4
27/06:30pm 24.9 27.4 21.8 83 2.1 S 11 15 6 8 1010.2 1009.3 4.4
27/06:00pm 24.6 25.6 22.1 86 1.7 SW 20 24 11 13 1009.6 1008.7 4.4
27/05:30pm 24.1 25.1 21.8 87 1.5 SSE 19 24 10 13 1009.6 1008.7 4.2
27/05:00pm 24.2 23.9 21.9 87 1.5 SSE 26 35 14 19 1010.4 1009.5 3.2
27/04:30pm 24.6 24.0 22.7 89 1.3 SSE 30 39 16 21 1010.5 1009.6 1.8
27/04:00pm 26.2 25.4 22.3 79 2.6 S 30 43 16 23 1009.7 1008.8 0.4
27/03:33pm 30.4 28.9 20.3 54 6.7 S 28 46 15 25 1008.7 1007.8 0.4
27/03:30pm 33.3 35.0 19.4 44 9.2 NE 9 19 5 10 1008.5 1007.5 0.4
27/03:00pm 33.7 33.9 18.6 40 9.9 N 15 20 8 11 1007.3 1006.3 0.4
27/02:30pm 35.0 32.8 16.8 34 11.7 N 24 30 13 16 1006.5 1005.5 0.4
27/02:00pm 35.3 35.6 18.8 37 10.9 N 15 22 8 12 1006.1 1005.1 0.4
27/01:30pm 34.9 33.2 19.7 41 10.1 NNW 28 33 15 18 1007.0 1006.0 0.4
27/01:01pm 35.1 31.4 19.9 41 10.2 N 39 57 21 31 1007.6 1006.6 0.4
27/01:00pm 35.3 31.2 20.0 40 10.3 N 41 57 22 31 1007.6 1006.6 0.4
27/12:53pm 34.2 29.5 20.6 45 9.2 N 46 65 25 35 1007.8 1006.8 0.4
27/12:49pm 33.6 26.9 20.4 46 8.9 N 56 65 30 35 1007.7 1006.7 0.4
27/12:42pm 36.3 34.4 20.9 40 10.5 N 32 50 17 27 1008.2 1007.2 0.4
27/12:30pm 37.7 38.0 18.7 33 12.6 ENE 15 22 8 12 1007.9 1006.9 0.4
27/12:00pm 35.6 37.4 20.3 40 10.3 E 11 17 6 9 1007.7 1006.7 0.4
27/11:30am 31.9 32.4 20.8 51 7.4 E 19 26 10 14 1008.6 1007.7 0.4
27/11:00am 29.0 30.5 22.7 69 4.3 WSW 19 26 10 14 1009.4 1008.5 0.2
27/10:34am 31.5 29.7 19.5 49 7.9 WSW 28 67 15 36 1009.4 1008.5 0.0
27/10:30am 34.4 35.5 19.6 41 9.8 SSW 13 20 7 11 1009.3 1008.4 0.0
27/10:00am 34.4 34.1 19.6 41 9.9 SW 20 28 11 15 1009.5 1008.6 0.0
27/09:30am 35.4 37.6 19.3 38 10.7 SSW 6 13 3 7 1009.8 1008.9 0.0
27/09:00am 34.2 35.8 19.1 41 10.0 SW 9 13 5 7 1010.2 1009.3 0.0
27/08:30am 35.4 37.6 19.7 39 10.5 W 7 15 4 8 1010.1 1009.2 0.0
27/08:00am 34.4 36.0 20.7 44 9.3 NW 13 22 7 12 1010.1 1009.2 0.0
27/07:30am 33.0 34.3 20.9 49 8.2 NW 15 22 8 12 1010.0 1009.1 0.0
27/07:00am 32.3 32.8 20.9 51 7.7 WNW 19 24 10 13 1009.9 1009.0 0.0
27/06:30am 31.0 31.5 20.9 55 6.8 NW 19 26 10 14 1009.8 1008.9 0.0
27/06:00am 29.3 31.1 19.6 56 6.4 NW 9 15 5 8 1009.6 1008.7 0.0
27/05:30am 28.1 30.1 19.1 58 5.8 NNW 7 11 4 6 1009.1 1008.2 0.0
27/05:00am 27.6 28.5 18.3 57 6.0 NNW 11 13 6 7 1008.7 1007.8 0.0
27/04:30am 28.2 29.8 18.3 55 6.3 NNW 7 9 4 5 1008.5 1007.5 0.0
27/04:00am 28.9 30.3 18.7 54 6.6 NW 9 11 5 6 1008.3 1007.3 0.0
27/03:30am 29.6 30.6 18.7 52 7.1 NW 11 15 6 8 1008.1 1007.1 0.0
27/03:00am 30.3 31.1 19.0 50 7.4 WNW 13 15 7 8 1007.9 1006.9 0.0
27/02:30am 30.3 31.1 19.0 50 7.4 W 13 15 7 8 1007.6 1006.6 0.0
27/02:00am 30.6 31.8 19.0 50 7.6 W 11 13 6 7 1007.4 1006.4 0.0
27/01:30am 30.6 31.4 19.0 50 7.6 W 13 17 7 9 1007.2 1006.2 0.0
27/01:00am 31.0 31.4 19.0 48 7.9 W 15 17 8 9 1006.9 1005.9 0.0
27/12:30am 31.2 31.9 18.9 48 8.0 WSW 13 19 7 10 1007.2 1006.2 0.0
27/12:00am 31.3 32.3 18.6 46 8.3 WSW 11 13 6 7 1007.0 1006.0 0.0
 
Date/Time
WST
Temp
°C
App
Temp
°C
Dew
Point
Rel
Hum
%
Delta-T
°C
Wind Press
QNH
hPa
Press
MSL
hPa
Rain
since 9 am
mm
Dir
 
Spd
km/h
Gust
km/h
Spd
kts
Gust
kts
26/11:30pm 31.2 32.9 18.5 46 8.2 NW 7 11 4 6 1007.0 1006.0 0.0
26/11:00pm 32.1 33.0 17.6 42 9.3 NNW 9 13 5 7 1006.8 1005.8 0.0
26/10:30pm 32.8 33.2 16.2 37 10.5 ENE 9 11 5 6 1006.8 1005.8 0.0
26/10:00pm 32.9 33.1 15.8 35 10.8 E 9 9 5 5 1006.9 1005.9 0.0
26/09:30pm 33.7 34.0 16.1 34 11.1 E 9 11 5 6 1007.0 1006.0 0.0
26/09:00pm 33.7 34.3 15.7 34 11.3 E 7 9 4 5 1006.9 1005.9 0.0
26/08:30pm 34.3 34.9 15.7 32 11.7 E 7 7 4 4 1006.5 1005.5 0.0
26/08:00pm 35.0 35.6 15.8 31 12.2 E 7 11 4 6 1006.4 1005.4 0.0
26/07:30pm 35.2 35.3 15.5 30 12.4 ESE 9 11 5 6 1006.1 1005.1 0.0
26/07:00pm 35.7 35.8 15.4 29 12.8 ESE 9 11 5 6 1005.9 1004.9 0.0
26/06:30pm 36.1 36.1 15.2 28 13.2 E 9 11 5 6 1005.3 1004.3 0.0
26/06:00pm 37.0 36.7 15.5 28 13.7 E 11 15 6 8 1004.9 1003.9 0.0

Other Formats:

Comma delimited format used in spreadsheet applications
http://www.bom.gov.au/fwo/IDW60801/IDW60801.94206.axf

JavaScript Object Notation format (JSON) in row-major order
http://www.bom.gov.au/fwo/IDW60801/IDW60801.94206.json